Latest Coastal Weather Observations for Strahan

IDT60701

Issued at 12:25 am EDT Sunday 2 November 2014 (issued every 10 minutes, with the page automatically refreshed every 10 minutes)

About coastal observations | Map of coastal stations | Coastal observations for TAS | Marine services | Other Formats
Station Details ID: 097072 Name: STRAHAN AERODROME Lat: -42.16 Lon: 145.29 Height: 21.0 m
Data from the previous 72 hours. | See also: Recent months at Strahan
Date/Time
EDT
Temp

°C
Wind Pressure Rain
since 9am
mm
Weather Cloud Vis
km
Sea
Height
m
Swell
Dir
 
Speed
knots
Gust
knots
hPa Trend Height
m
Period
s
Dir
02/12:23am 3.4 SW 28 38 1006.6 - 3.8 - Partly cloudy 7 - - - -
02/12:20am 3.6 SW 31 38 1006.7 - 3.6 - Partly cloudy 10 - - - -
02/12:15am 5.1 WSW 24 45 1006.2 - 3.6 - Partly cloudy 10 - - - -
02/12:00am 4.0 W 17 27 1005.8 - 3.6 Recent precip. Partly cloudy 10 - - - -
 
Date/Time
EDT
Temp

°C
Wind Pressure Rain
since 9am
mm
Weather Cloud Vis
km
Sea
Height
m
Swell
Dir
 
Speed
knots
Gust
knots
hPa Trend Height
m
Period
s
Dir
01/11:30pm 4.1 WSW 19 31 1005.8 - 3.2 - Partly cloudy 10 - - - -
01/11:01pm 4.0 SW 15 27 1005.8 - 3.2 - Partly cloudy 10 - - - -
01/11:00pm 3.6 SW 14 27 1005.7 - 3.2 - Partly cloudy 10 - - - -
01/10:30pm 5.1 WSW 23 33 1005.2 - 3.0 - Partly cloudy 10 - - - -
01/10:29pm 5.1 WSW 22 31 1005.1 - 3.0 - Partly cloudy 10 - - - -
01/10:19pm 5.1 W 20 29 1004.9 - 3.0 - Partly cloudy 10 - - - -
01/10:00pm 4.8 WSW 18 28 1005.2 - 3.0 - Partly cloudy 10 - - - -
01/09:58pm 4.7 WSW 17 28 1005.2 - 3.0 - Partly cloudy 10 - - - -
01/09:30pm 3.8 WSW 18 24 1005.3 - 3.0 - Partly cloudy 10 - - - -
01/09:13pm 4.0 WSW 19 31 1005.1 - 3.0 - Partly cloudy 10 - - - -
01/09:00pm 4.1 WSW 16 22 1004.6 - 3.0 Recent precip. Cloudy 10 - - - -
01/08:56pm 4.0 WSW 16 22 1004.4 - 3.0 - Partly cloudy 10 - - - -
01/08:41pm 3.0 W 19 25 1004.4 - 3.0 - Partly cloudy 4 - - - -
01/08:37pm 3.2 WSW 33 45 1004.7 - 2.6 - Partly cloudy 5 - - - -
01/08:36pm 3.6 WSW 34 45 1004.6 - 2.4 - Partly cloudy 6 - - - -
01/08:33pm 5.5 WSW 19 37 1004.0 - 2.2 - Partly cloudy 10 - - - -
01/08:30pm 5.5 W 18 23 1003.8 - 2.2 - Partly cloudy 10 - - - -
01/08:00pm 4.2 WSW 15 23 1004.0 - 2.2 - Partly cloudy 10 - - - -
01/07:30pm 4.4 SW 20 33 1003.7 - 2.2 - Partly cloudy 10 - - - -
01/07:23pm 5.1 SW 22 33 1003.5 - 2.2 - Partly cloudy 10 - - - -
01/07:22pm 5.1 SW 24 33 1003.5 - 2.2 - Partly cloudy 10 - - - -
01/07:00pm 5.5 W 18 33 1002.6 - 2.2 - Partly cloudy 10 - - - -
01/06:33pm 5.5 W 19 29 1002.4 - 2.0 - Partly cloudy 10 - - - -
01/06:30pm 5.8 W 18 27 1002.3 - 2.0 - Partly cloudy 10 - - - -
01/06:27pm 5.4 W 19 24 1002.3 - 2.0 - Partly cloudy 9 - - - -
01/06:00pm 6.4 WSW 20 31 1001.8 - 2.0 Recent precip. Cloudy 10 - - - -
01/05:58pm 6.3 WSW 21 31 1001.8 - 2.0 - Partly cloudy 10 - - - -
01/05:54pm 6.6 WSW 20 25 1001.7 - 2.0 - Partly cloudy 10 - - - -
01/05:32pm 6.5 W 19 31 1001.4 - 1.4 - Partly cloudy 10 - - - -
01/05:30pm 6.9 W 19 26 1001.1 - 1.4 - Partly cloudy 10 - - - -
01/05:17pm 8.0 W 22 33 1001.2 - 1.4 - Partly cloudy 10 - - - -
01/05:00pm 7.1 W 21 29 1001.1 - 1.4 - Partly cloudy 10 - - - -
01/04:32pm 6.0 WNW 23 33 1000.9 - 1.4 - Partly cloudy 10 - - - -
01/04:30pm 5.9 WNW 24 33 1000.8 - 1.4 - Partly cloudy 10 - - - -
01/04:27pm 6.3 WNW 25 33 1000.9 - 1.4 - Partly cloudy 10 - - - -
01/04:00pm 7.6 W 20 29 1000.4 - 1.4 - Partly cloudy 10 - - - -
01/03:34pm 7.2 W 16 28 1000.3 - 1.4 - Partly cloudy 10 - - - -
01/03:30pm 6.6 W 17 24 1000.3 - 1.4 - Partly cloudy 10 - - - -
01/03:11pm 5.0 W 19 33 1000.6 - 1.2 - Partly cloudy 5 - - - -
01/03:05pm 6.9 W 15 25 1000.2 - 0.8 - Partly cloudy 10 - - - -
01/03:00pm 7.5 W 16 23 1000.0 - 0.6 - Cloudy 10 - - - -
01/02:41pm 8.4 W 22 33 999.9 - 0.6 - Partly cloudy 10 - - - -
01/02:30pm 10.2 W 23 28 999.7 - 0.6 - Partly cloudy 10 - - - -
01/02:29pm 10.9 W 22 28 999.7 - 0.6 - Partly cloudy 10 - - - -
01/02:00pm 7.8 WNW 23 37 999.6 - 0.6 - Partly cloudy 10 - - - -
01/01:59pm 7.8 WNW 25 37 999.6 - 0.6 - Partly cloudy 10 - - - -
01/01:30pm 10.7 W 23 34 999.0 - 0.6 - Partly cloudy 10 - - - -
01/01:00pm 10.7 W 23 33 998.6 - 0.6 - Partly cloudy 10 - - - -
01/12:30pm 10.2 W 19 30 998.1 - 0.6 - Partly cloudy 10 - - - -
01/12:10pm 10.1 W 21 31 998.0 - 0.6 - Partly cloudy 10 - - - -
01/12:00pm 9.0 W 19 27 997.9 - 0.6 - Cloudy 10 - - - -
01/11:30am 9.2 W 20 30 997.4 - 0.6 - Partly cloudy 10 - - - -
01/11:24am 9.0 W 19 30 997.2 - 0.6 - Partly cloudy 10 - - - -
01/11:00am 7.3 W 18 25 997.1 - 0.6 - Partly cloudy 10 - - - -
01/10:47am 7.5 WNW 16 26 996.8 - 0.4 - Partly cloudy 10 - - - -
01/10:37am 7.9 WNW 17 23 996.7 - 0.4 - Partly cloudy 10 - - - -
01/10:30am 7.3 WNW 19 30 996.5 - 0.4 - Partly cloudy 7 - - - -
01/10:19am 8.2 WNW 21 31 996.2 - 0.2 - Partly cloudy 7 - - - -
01/10:15am 8.1 W 21 29 996.1 - 0.2 - Partly cloudy 5 - - - -
01/10:04am 10.4 W 15 27 995.9 - 0.0 - Partly cloudy 10 - - - -
01/10:00am 10.3 W 14 19 996.0 - 0.0 - Partly cloudy 10 - - - -
01/09:30am 9.8 WNW 17 25 995.7 - 0.0 - Partly cloudy 10 - - - -
01/09:00am 10.5 WNW 16 23 995.8 - 10.6 - Cloudy 10 - - - -
01/08:30am 11.0 WNW 16 22 995.8 - 10.6 - Partly cloudy 10 - - - -
01/08:00am 9.9 WNW 11 15 995.9 - 10.6 - Partly cloudy 10 - - - -
01/07:30am 9.1 W 14 18 995.6 - 10.6 - Partly cloudy 10 - - - -
01/07:00am 8.9 W 16 23 995.2 - 10.6 - Partly cloudy 10 - - - -
01/06:30am 9.0 W 14 21 994.6 - 10.6 - Partly cloudy 10 - - - -
01/06:00am 8.9 W 16 24 994.2 - 10.6 Recent precip. Cloudy 10 - - - -
01/05:30am 9.2 W 18 24 993.6 - 10.4 - Partly cloudy 6 - - - -
01/05:01am 9.4 W 16 25 993.0 - 10.2 - Partly cloudy 10 - - - -
01/05:00am 9.4 W 16 25 993.0 - 10.2 - Partly cloudy 10 - - - -
01/04:30am 10.3 NNW 14 21 992.1 - 8.2 - Partly cloudy 3 - - - -
01/04:29am 10.3 NNW 14 20 992.1 - 8.2 - Partly cloudy 3 - - - -
01/04:16am 10.3 N 14 20 992.0 - 7.2 - Partly cloudy 5 - - - -
01/04:00am 10.4 NNW 14 20 991.9 - 7.2 - Partly cloudy 8 - - - -
01/03:30am 10.6 NNW 14 18 992.5 - 6.8 - Partly cloudy 8 - - - -
01/03:17am 10.5 NNW 15 25 992.9 - 6.8 - Partly cloudy 8 - - - -
01/03:04am 10.6 NNW 18 25 993.3 - 6.6 - Partly cloudy 8 - - - -
01/03:00am 10.5 NNW 19 26 993.4 - 6.6 Rain Cloudy 7 - - - -
01/02:46am 11.1 NNW 16 26 993.7 - 6.2 - Partly cloudy 5 - - - -
01/02:30am 10.6 N 17 23 993.7 - 5.6 - Partly cloudy 5 - - - -
01/02:00am 11.0 NNW 15 21 993.9 - 3.8 - Partly cloudy 4 - - - -
01/01:30am 11.2 NNW 14 21 994.1 - 2.6 - Partly cloudy 5 - - - -
01/01:20am 11.2 NNW 14 19 994.2 - 2.4 - Partly cloudy 5 - - - -
01/01:00am 11.3 NW 15 24 994.0 - 1.8 - Partly cloudy 6 - - - -
01/12:30am 11.8 NW 18 24 994.6 - 1.6 - Partly cloudy 9 - - - -
01/12:05am 12.7 NW 19 29 995.0 - 1.6 - Partly cloudy 10 - - - -
01/12:00am 13.0 NW 20 29 995.1 - 1.6 - Cloudy 10 - - - -
 
Date/Time
EDT
Temp

°C
Wind Pressure Rain
since 9am
mm
Weather Cloud Vis
km
Sea
Height
m
Swell
Dir
 
Speed
knots
Gust
knots
hPa Trend Height
m
Period
s
Dir
31/11:51pm 13.8 NW 20 25 994.8 - 1.6 - Partly cloudy 10 - - - -
31/11:32pm 14.4 NNW 15 28 994.0 - 1.6 - Partly cloudy 10 - - - -
31/11:30pm 14.4 N 14 22 993.9 - 1.6 - Partly cloudy 10 - - - -
31/11:00pm 15.0 N 13 18 993.3 - 1.6 - Cloudy 10 - - - -
31/10:30pm 14.7 N 11 15 993.9 - 1.6 - Partly cloudy 10 - - - -
31/10:00pm 13.6 N 9 15 993.9 - 1.4 - Partly cloudy 10 - - - -
31/09:30pm 13.6 N 7 12 994.4 - 1.4 - Partly cloudy 10 - - - -
31/09:00pm 15.7 N 12 16 994.5 - 1.2 - Cloudy 10 - - - -
31/08:30pm 16.0 N 12 17 994.5 - 1.2 - Partly cloudy 10 - - - -
31/08:00pm 15.8 N 12 15 994.9 - 1.2 - Cloudy 10 - - - -
31/07:30pm 16.7 N 15 28 995.3 - 1.2 - Cloudy 10 - - - -
31/07:12pm 16.5 N 15 26 994.9 - 1.2 - Cloudy 10 - - - -
31/07:00pm 15.9 N 11 17 994.7 - 1.2 - Cloudy 10 - - - -
31/06:30pm 15.7 N 12 18 994.8 - 1.2 - Cloudy 10 - - - -
31/06:00pm 14.6 N 9 14 995.3 - 1.2 - Cloudy 10 - - - -
31/05:30pm 14.9 N 11 16 995.8 - 1.2 - Partly cloudy 10 - - - -
31/05:00pm 14.7 N 10 18 996.3 - 1.2 - Partly cloudy 10 - - - -
31/04:30pm 14.1 N 8 13 997.1 - 1.2 - Partly cloudy 10 - - - -
31/04:00pm 14.0 N 10 15 997.7 - 1.2 - Cloudy 10 - - - -
31/03:30pm 13.5 N 9 14 998.9 - 1.0 - Cloudy 10 - - - -
31/03:00pm 13.3 NNE 9 13 999.5 - 1.0 - Mostly cloudy 10 - - - -
31/02:30pm 12.7 NNE 9 13 1000.4 - 1.0 - Partly cloudy 10 - - - -
31/02:00pm 12.1 N 9 15 1001.5 - 1.0 - Partly cloudy 10 - - - -
31/01:30pm 11.4 NNE 9 15 1001.2 - 1.0 - Cloudy 10 - - - -
31/01:00pm 11.0 N 9 15 1001.9 - 1.0 - Cloudy 10 - - - -
31/12:30pm 10.6 N 8 12 1002.6 - 0.8 - Partly cloudy 10 - - - -
31/12:00pm 10.2 NNE 10 16 1002.3 - 0.8 Rain Cloudy 10 - - - -
31/11:30am 10.2 N 8 12 1003.6 - 0.4 - Partly cloudy 10 - - - -
31/11:00am 10.3 N 10 14 1004.1 - 0.2 - Cloudy 10 - - - -
31/10:30am 10.1 N 10 13 1004.9 - 0.0 - Cloudy 10 - - - -
31/10:00am 10.0 N 10 12 1005.3 - 0.0 - Partly cloudy 10 - - - -
31/09:30am 9.9 N 10 13 1005.5 - 0.0 - Partly cloudy 10 - - - -
31/09:00am 9.3 N 10 14 1005.9 - 5.0 - Cloudy 10 - - - -
31/08:30am 9.0 N 9 12 1006.0 - 5.0 - Cloudy 10 - - - -
31/08:00am 9.0 N 10 15 1006.0 - 5.0 - Cloudy 10 - - - -
31/07:30am 8.6 N 8 12 1006.3 - 5.0 - Cloudy 10 - - - -
31/07:00am 8.5 N 7 11 1006.1 - 5.0 - Cloudy 10 - - - -
31/06:30am 8.3 N 8 14 1006.6 - 5.0 - Cloudy 10 - - - -
31/06:00am 8.5 N 9 12 1006.7 - 5.0 - Cloudy 10 - - - -
31/05:30am 8.8 NNW 14 18 1006.7 - 5.0 - Partly cloudy 10 - - - -
31/05:00am 8.8 NW 13 19 1006.8 - 5.0 - Partly cloudy 8 - - - -
31/04:35am 9.2 NNW 14 18 1006.9 - 4.8 - Partly cloudy 9 - - - -
31/04:30am 9.1 NNW 13 18 1007.0 - 4.8 - Partly cloudy 8 - - - -
31/04:19am 9.4 NNW 13 20 1007.3 - 4.8 - Partly cloudy 7 - - - -
31/04:00am 9.3 NNW 11 15 1007.6 - 4.4 - Partly cloudy 10 - - - -
31/03:30am 9.2 NNW 10 12 1007.9 - 4.4 - Partly cloudy 8 - - - -
31/03:10am 9.2 NNW 12 16 1007.8 - 4.4 - Partly cloudy 9 - - - -
31/03:00am 9.0 NNW 11 15 1007.9 - 4.4 Recent precip. Cloudy 9 - - - -
31/02:49am 9.1 NNW 13 21 1008.0 - 4.4 - Partly cloudy 7 - - - -
31/02:34am 9.3 NW 13 18 1008.3 - 4.4 - Partly cloudy 4 - - - -
31/02:30am 9.2 NW 13 18 1008.4 - 4.2 - Partly cloudy 4 - - - -
31/02:28am 9.2 NW 13 18 1008.4 - 4.2 - Partly cloudy 5 - - - -
31/02:27am 9.4 NW 13 17 1008.4 - 4.2 - Partly cloudy 6 - - - -
31/02:08am 9.3 NNW 13 17 1008.5 - 4.2 - Partly cloudy 9 - - - -
31/02:00am 9.2 NNW 12 17 1008.6 - 4.2 - Partly cloudy 7 - - - -
31/01:57am 9.4 NNW 11 15 1008.7 - 4.2 - Partly cloudy 5 - - - -
31/01:48am 9.3 NW 13 18 1008.9 - 4.2 - Partly cloudy 7 - - - -
31/01:30am 9.4 NNW 12 21 1009.1 - 4.2 - Partly cloudy 5 - - - -
31/01:11am 9.4 NW 10 14 1009.4 - 4.0 - Partly cloudy 8 - - - -
31/01:00am 9.4 NW 12 16 1009.6 - 4.0 - Partly cloudy 4 - - - -
31/12:47am 9.4 NNW 12 19 1009.8 - 3.2 - Partly cloudy 4 - - - -
31/12:43am 9.4 NNW 11 15 1009.8 - 3.2 - Partly cloudy 6 - - - -
31/12:30am 9.3 NNW 13 18 1009.8 - 3.2 - Partly cloudy 5 - - - -
31/12:27am 9.3 NNW 12 18 1009.8 - 3.2 - Partly cloudy 5 - - - -
31/12:26am 9.4 NNW 12 18 1009.9 - 3.0 - Partly cloudy 6 - - - -
31/12:24am 9.4 NNW 12 18 1009.8 - 3.0 - Partly cloudy 7 - - - -
31/12:04am 9.5 NNW 12 17 1010.0 - 3.0 - Partly cloudy 5 - - - -
31/12:00am 9.5 NNW 11 17 1009.9 - 3.0 - Cloudy 6 - - - -
 
Date/Time
EDT
Temp

°C
Wind Pressure Rain
since 9am
mm
Weather Cloud Vis
km
Sea
Height
m
Swell
Dir
 
Speed
knots
Gust
knots
hPa Trend Height
m
Period
s
Dir
30/11:30pm 9.3 NNW 13 17 1010.0 - 3.0 - Partly cloudy 6 - - - -
30/11:27pm 9.3 NNW 13 17 1010.0 - 3.0 - Partly cloudy 7 - - - -
30/11:15pm 9.4 NNW 12 17 1010.1 - 3.0 - Partly cloudy 5 - - - -
30/11:00pm 9.2 NNW 13 18 1010.1 - 3.0 - Partly cloudy 10 - - - -
30/10:32pm 9.2 NNW 11 14 1010.3 - 3.0 - Partly cloudy 8 - - - -
30/10:30pm 9.2 NNW 11 15 1010.3 - 3.0 - Partly cloudy 8 - - - -
30/10:28pm 9.1 NNW 12 15 1010.3 - 3.0 - Partly cloudy 9 - - - -
30/10:17pm 9.0 NW 13 19 1010.6 - 2.8 - Partly cloudy 4 - - - -
30/10:12pm 9.2 NW 12 19 1010.6 - 2.8 - Partly cloudy 5 - - - -
30/10:00pm 9.5 NW 12 16 1010.6 - 2.8 - Partly cloudy 10 - - - -
30/09:35pm 9.1 NW 10 15 1010.6 - 2.8 - Partly cloudy 10 - - - -
30/09:30pm 9.2 NW 10 13 1010.6 - 2.8 - Partly cloudy 10 - - - -
30/09:16pm 9.2 WNW 13 17 1010.4 - 2.8 - Partly cloudy 10 - - - -
30/09:00pm 9.4 NW 13 17 1010.4 - 2.8 Rain Cloudy 4 - - - -
30/08:56pm 9.3 NW 11 17 1010.4 - 2.6 - Partly cloudy 5 - - - -
30/08:46pm 9.4 NW 11 15 1010.2 - 2.6 - Partly cloudy 10 - - - -
30/08:35pm 9.4 NW 11 16 1010.2 - 2.6 - Partly cloudy 5 - - - -
30/08:30pm 9.4 NW 9 13 1010.1 - 2.6 - Partly cloudy 8 - - - -
30/08:18pm 9.4 NW 7 11 1010.1 - 2.6 - Partly cloudy 7 - - - -
30/08:06pm 9.3 NNW 5 8 1010.2 - 2.6 - Partly cloudy 5 - - - -
30/08:01pm 9.3 NNW 5 8 1010.1 - 2.6 - Partly cloudy 5 - - - -
30/08:00pm 9.3 NNW 5 8 1010.2 - 2.6 - Partly cloudy 6 - - - -
30/07:44pm 9.1 NW 5 6 1010.2 - 2.6 - Partly cloudy 8 - - - -
30/07:30pm 9.2 NNW 6 9 1010.2 - 2.6 - Partly cloudy 10 - - - -
30/07:21pm 9.2 N 6 9 1010.0 - 2.6 - Partly cloudy 9 - - - -
30/07:08pm 9.2 NNW 6 7 1010.1 - 2.6 - Cloudy 5 - - - -
30/07:00pm 9.2 NNW 7 10 1010.1 - 2.6 - Cloudy 10 - - - -
30/06:30pm 9.5 NNW 7 9 1010.0 - 2.6 - Partly cloudy 10 - - - -
30/06:01pm 9.2 NW 5 5 1010.1 - 2.6 - Partly cloudy 9 - - - -
30/06:00pm 9.2 NW 5 6 1010.1 - 2.6 Recent precip. Cloudy 9 - - - -
30/05:59pm 9.3 NW 5 7 1010.1 - 2.6 - Partly cloudy 8 - - - -
30/05:34pm 9.4 NW 7 9 1010.3 - 2.4 - Partly cloudy 5 - - - -
30/05:30pm 9.5 NW 7 8 1010.3 - 2.2 - Partly cloudy 8 - - - -
30/05:00pm 9.4 WNW 7 9 1010.6 - 2.2 - Cloudy 10 - - - -
30/04:30pm 9.8 W 8 10 1010.3 - 2.2 - Partly cloudy 10 - - - -
30/04:12pm 9.8 WSW 8 10 1010.6 - 2.2 - Partly cloudy 8 - - - -
30/04:06pm 9.3 WSW 8 10 1010.4 - 2.2 - Partly cloudy 8 - - - -
30/04:00pm 9.8 WSW 7 10 1010.4 - 2.2 - Partly cloudy 7 - - - -
30/03:46pm 9.8 W 11 14 1010.6 - 2.2 - Partly cloudy 4 - - - -
30/03:30pm 9.9 W 11 14 1010.6 - 1.8 - Partly cloudy 5 - - - -
30/03:00pm 9.8 WNW 9 13 1010.4 - 1.8 Recent precip. Cloudy 10 - - - -
30/02:57pm 10.2 WNW 9 12 1010.4 - 1.8 - Partly cloudy 10 - - - -
30/02:50pm 10.4 WNW 9 11 1010.6 - 1.8 - Partly cloudy 10 - - - -
30/02:30pm 10.0 WSW 12 14 1010.9 - 1.6 - Partly cloudy 2 - - - -
30/02:15pm 10.4 W 11 16 1010.8 - 1.6 - Partly cloudy 5 - - - -
30/02:00pm 10.6 W 12 15 1010.6 - 1.6 - Partly cloudy 10 - - - -
30/01:56pm 10.5 WNW 11 14 1010.6 - 1.6 - Partly cloudy 10 - - - -
30/01:39pm 10.5 WNW 11 16 1010.4 - 1.6 - Partly cloudy 10 - - - -
30/01:30pm 10.2 WNW 11 16 1010.6 - 1.6 - Partly cloudy 7 - - - -
30/01:00pm 10.0 W 9 11 1010.3 - 1.6 - Partly cloudy 10 - - - -
30/12:49pm 10.0 W 9 13 1010.4 - 1.6 - Partly cloudy 10 - - - -
30/12:30pm 9.8 W 9 11 1010.4 - 1.6 - Partly cloudy 3 - - - -
30/12:00pm 9.6 W 12 17 1010.6 - 1.4 Rain Cloudy 2 - - - -
30/11:42am 9.3 WNW 11 18 1010.6 - 0.8 - Partly cloudy 3 - - - -
30/11:33am 9.5 WNW 12 17 1010.6 - 0.6 - Partly cloudy 2 - - - -
30/11:30am 9.4 WNW 13 17 1010.6 - 0.6 - Partly cloudy 2 - - - -
30/11:22am 9.6 WNW 13 17 1010.6 - 0.2 - Partly cloudy 3 - - - -
30/11:19am 9.8 WNW 14 19 1010.6 - 0.2 - Partly cloudy 3 - - - -
30/11:05am 9.9 WNW 16 21 1010.7 - 0.0 - Partly cloudy 5 - - - -
30/11:00am 10.5 WNW 15 18 1010.7 - 0.0 - Partly cloudy 6 - - - -
30/10:59am 10.4 WNW 15 20 1010.7 - 0.0 - Partly cloudy 6 - - - -
30/10:30am 10.6 WNW 16 22 1010.7 - 0.0 - Partly cloudy 10 - - - -
30/10:00am 11.1 NW 16 20 1010.6 - 0.0 - Partly cloudy 10 - - - -
30/09:30am 10.4 NW 13 17 1010.6 - 0.0 - Partly cloudy 10 - - - -
30/09:00am 9.8 NW 11 15 1010.4 - 3.2 - Cloudy 10 - - - -
30/08:30am 9.2 WNW 11 15 1010.4 - 3.2 - Partly cloudy 10 - - - -
30/08:13am 9.0 NW 9 11 1010.4 - 3.2 - Partly cloudy 10 - - - -
30/08:10am 8.9 NW 9 12 1010.3 - 3.2 - Partly cloudy 10 - - - -
30/08:00am 8.8 WNW 12 17 1010.2 - 3.2 - Partly cloudy 3 - - - -
30/07:54am 8.8 WNW 13 20 1010.2 - 3.2 - Partly cloudy 4 - - - -
30/07:34am 9.1 WNW 11 19 1010.2 - 2.8 - Partly cloudy 5 - - - -
30/07:30am 9.5 WNW 9 14 1010.2 - 2.8 - Partly cloudy 10 - - - -
30/07:00am 9.1 WNW 10 13 1009.9 - 2.8 - Partly cloudy 10 - - - -
30/06:46am 9.3 WNW 11 16 1009.9 - 2.8 - Partly cloudy 7 - - - -
30/06:36am 9.2 WNW 12 16 1009.7 - 2.8 - Partly cloudy 10 - - - -
30/06:30am 9.0 WNW 11 15 1009.7 - 2.8 - Partly cloudy 10 - - - -
30/06:06am 9.1 NW 11 15 1009.4 - 2.8 - Partly cloudy 10 - - - -
30/06:00am 9.1 NW 11 14 1009.3 - 2.8 - Cloudy 10 - - - -
30/05:39am 9.0 NW 11 14 1009.2 - 2.8 - Partly cloudy 10 - - - -
30/05:30am 9.2 NW 10 14 1009.0 - 2.8 - Partly cloudy 9 - - - -
30/05:22am 9.3 WNW 9 11 1008.9 - 2.8 - Partly cloudy 10 - - - -
30/05:00am 9.1 WNW 11 15 1009.1 - 2.8 - Partly cloudy 10 - - - -
30/04:43am 9.1 WNW 11 14 1009.2 - 2.8 - Partly cloudy 10 - - - -
30/04:30am 9.1 NW 10 13 1009.2 - 2.8 - Partly cloudy 10 - - - -
30/04:00am 9.0 WNW 9 13 1009.5 - 2.8 - Partly cloudy 10 - - - -
30/03:30am 9.0 WNW 11 16 1009.6 - 2.8 - Partly cloudy 10 - - - -
30/03:00am 9.0 WNW 12 16 1009.8 - 2.8 Recent precip. Cloudy 10 - - - -
30/02:46am 8.7 WNW 11 15 1009.6 - 2.8 - Partly cloudy 10 - - - -
30/02:41am 8.5 NW 11 15 1009.6 - 2.8 - Partly cloudy 10 - - - -
30/02:30am 8.7 WNW 15 21 1009.7 - 2.8 - Partly cloudy 2 - - - -
30/02:24am 9.1 WNW 15 21 1009.8 - 1.8 - Partly cloudy 3 - - - -
30/02:01am 9.5 NW 15 21 1009.7 - 1.6 - Partly cloudy 5 - - - -
30/02:00am 9.5 NW 15 21 1009.7 - 1.6 - Partly cloudy 6 - - - -
30/01:30am 9.4 NW 13 17 1009.9 - 1.6 - Partly cloudy 10 - - - -
30/01:00am 8.9 NNW 11 15 1010.2 - 1.6 - Partly cloudy 10 - - - -
30/12:50am 8.8 NW 9 13 1010.3 - 1.6 - Partly cloudy 10 - - - -
30/12:35am 8.8 NW 17 24 1010.6 - 1.6 - Partly cloudy 5 - - - -
30/12:30am 9.2 NW 17 24 1010.4 - 1.6 - Partly cloudy 8 - - - -

Other Formats:

Comma delimited format used in spreadsheet applications
http://www.bom.gov.au/fwo/IDT60701/IDT60701.94956.axf

JavaScript Object Notation format (JSON) in row-major order
http://www.bom.gov.au/fwo/IDT60701/IDT60701.94956.json